sensor_id;sensor_type;location;lat;lon;timestamp;temperature;humidity
7046;DHT22;3564;53.326;10.356;2022-11-20T00:01:20;5.70;98.50
7046;DHT22;3564;53.326;10.356;2022-11-20T00:03:46;5.60;98.40
7046;DHT22;3564;53.326;10.356;2022-11-20T00:06:16;5.60;98.40
7046;DHT22;3564;53.326;10.356;2022-11-20T00:08:43;5.70;98.40
7046;DHT22;3564;53.326;10.356;2022-11-20T00:11:14;5.60;98.20
7046;DHT22;3564;53.326;10.356;2022-11-20T00:13:40;5.70;98.40
7046;DHT22;3564;53.326;10.356;2022-11-20T00:16:08;5.60;98.30
7046;DHT22;3564;53.326;10.356;2022-11-20T00:18:35;5.60;98.30
7046;DHT22;3564;53.326;10.356;2022-11-20T00:21:05;5.60;98.30
7046;DHT22;3564;53.326;10.356;2022-11-20T00:23:31;5.60;98.20
7046;DHT22;3564;53.326;10.356;2022-11-20T00:26:04;5.60;98.30
7046;DHT22;3564;53.326;10.356;2022-11-20T00:28:51;5.60;98.30
7046;DHT22;3564;53.326;10.356;2022-11-20T00:31:17;5.60;98.20
7046;DHT22;3564;53.326;10.356;2022-11-20T00:33:44;5.60;98.10
7046;DHT22;3564;53.326;10.356;2022-11-20T00:36:14;5.50;98.20
7046;DHT22;3564;53.326;10.356;2022-11-20T00:38:40;5.50;98.20
7046;DHT22;3564;53.326;10.356;2022-11-20T00:41:09;5.50;98.30
7046;DHT22;3564;53.326;10.356;2022-11-20T00:43:36;5.50;98.30
7046;DHT22;3564;53.326;10.356;2022-11-20T00:46:04;5.40;98.20
7046;DHT22;3564;53.326;10.356;2022-11-20T00:48:30;5.40;98.30
7046;DHT22;3564;53.326;10.356;2022-11-20T00:50:56;5.40;98.30
7046;DHT22;3564;53.326;10.356;2022-11-20T00:53:22;5.40;98.30
7046;DHT22;3564;53.326;10.356;2022-11-20T00:56:01;5.40;98.30
7046;DHT22;3564;53.326;10.356;2022-11-20T00:58:36;5.40;98.40
7046;DHT22;3564;53.326;10.356;2022-11-20T01:01:08;5.40;98.30
7046;DHT22;3564;53.326;10.356;2022-11-20T01:03:39;5.30;98.20
7046;DHT22;3564;53.326;10.356;2022-11-20T01:06:13;5.30;98.30
7046;DHT22;3564;53.326;10.356;2022-11-20T01:08:39;5.20;98.30
7046;DHT22;3564;53.326;10.356;2022-11-20T01:11:11;5.20;98.50
7046;DHT22;3564;53.326;10.356;2022-11-20T01:13:37;5.20;98.50
7046;DHT22;3564;53.326;10.356;2022-11-20T01:18:35;5.20;98.50
7046;DHT22;3564;53.326;10.356;2022-11-20T01:21:07;5.30;98.50
7046;DHT22;3564;53.326;10.356;2022-11-20T01:23:34;5.30;98.40
7046;DHT22;3564;53.326;10.356;2022-11-20T01:26:04;5.30;98.30
7046;DHT22;3564;53.326;10.356;2022-11-20T01:28:30;5.30;98.40
7046;DHT22;3564;53.326;10.356;2022-11-20T01:30:56;5.30;98.40
7046;DHT22;3564;53.326;10.356;2022-11-20T01:33:22;5.30;98.40
7046;DHT22;3564;53.326;10.356;2022-11-20T01:35:48;5.30;98.30
7046;DHT22;3564;53.326;10.356;2022-11-20T01:38:15;5.30;98.30
7046;DHT22;3564;53.326;10.356;2022-11-20T01:40:41;5.30;98.60
7046;DHT22;3564;53.326;10.356;2022-11-20T01:43:19;5.30;98.40
7046;DHT22;3564;53.326;10.356;2022-11-20T01:48:29;5.30;98.10
7046;DHT22;3564;53.326;10.356;2022-11-20T01:50:55;5.30;98.10
7046;DHT22;3564;53.326;10.356;2022-11-20T01:53:25;5.30;98.10
7046;DHT22;3564;53.326;10.356;2022-11-20T01:55:54;5.30;98.20
7046;DHT22;3564;53.326;10.356;2022-11-20T01:58:23;5.30;98.10
7046;DHT22;3564;53.326;10.356;2022-11-20T02:00:51;5.30;98.00
7046;DHT22;3564;53.326;10.356;2022-11-20T02:03:19;5.30;97.90
7046;DHT22;3564;53.326;10.356;2022-11-20T02:08:23;5.30;97.90
7046;DHT22;3564;53.326;10.356;2022-11-20T02:10:49;5.30;97.90
7046;DHT22;3564;53.326;10.356;2022-11-20T02:13:15;5.40;97.80
7046;DHT22;3564;53.326;10.356;2022-11-20T02:15:59;5.40;97.80
7046;DHT22;3564;53.326;10.356;2022-11-20T02:18:26;5.40;97.80
7046;DHT22;3564;53.326;10.356;2022-11-20T02:21:42;5.40;98.00
7046;DHT22;3564;53.326;10.356;2022-11-20T02:24:06;5.40;97.80
7046;DHT22;3564;53.326;10.356;2022-11-20T02:26:38;5.40;97.80
7046;DHT22;3564;53.326;10.356;2022-11-20T02:29:04;5.40;97.70
7046;DHT22;3564;53.326;10.356;2022-11-20T02:31:38;5.40;97.70
7046;DHT22;3564;53.326;10.356;2022-11-20T02:34:04;5.40;97.60
7046;DHT22;3564;53.326;10.356;2022-11-20T02:36:32;5.40;97.60
7046;DHT22;3564;53.326;10.356;2022-11-20T02:38:59;5.40;97.60
7046;DHT22;3564;53.326;10.356;2022-11-20T02:41:36;5.40;97.70
7046;DHT22;3564;53.326;10.356;2022-11-20T02:44:03;5.40;97.80
7046;DHT22;3564;53.326;10.356;2022-11-20T02:46:29;5.40;97.70
7046;DHT22;3564;53.326;10.356;2022-11-20T02:48:55;5.40;97.70
7046;DHT22;3564;53.326;10.356;2022-11-20T02:51:21;5.40;97.80
7046;DHT22;3564;53.326;10.356;2022-11-20T02:53:46;5.40;97.70
7046;DHT22;3564;53.326;10.356;2022-11-20T02:56:12;5.40;97.70
7046;DHT22;3564;53.326;10.356;2022-11-20T02:58:37;5.40;97.70
7046;DHT22;3564;53.326;10.356;2022-11-20T03:01:03;5.40;97.80
7046;DHT22;3564;53.326;10.356;2022-11-20T03:03:29;5.40;97.80
7046;DHT22;3564;53.326;10.356;2022-11-20T03:05:54;5.50;97.80
7046;DHT22;3564;53.326;10.356;2022-11-20T03:08:20;5.50;97.70
7046;DHT22;3564;53.326;10.356;2022-11-20T03:10:45;5.50;97.80
7046;DHT22;3564;53.326;10.356;2022-11-20T03:13:11;5.50;97.80
7046;DHT22;3564;53.326;10.356;2022-11-20T03:15:37;5.40;97.80
7046;DHT22;3564;53.326;10.356;2022-11-20T03:18:03;5.40;97.90
7046;DHT22;3564;53.326;10.356;2022-11-20T03:20:28;5.40;97.80
7046;DHT22;3564;53.326;10.356;2022-11-20T03:22:54;5.40;97.90
7046;DHT22;3564;53.326;10.356;2022-11-20T03:25:21;5.40;97.90
7046;DHT22;3564;53.326;10.356;2022-11-20T03:27:46;5.40;97.80
7046;DHT22;3564;53.326;10.356;2022-11-20T03:30:14;5.40;97.90
7046;DHT22;3564;53.326;10.356;2022-11-20T03:32:40;5.40;97.80
7046;DHT22;3564;53.326;10.356;2022-11-20T03:35:05;5.40;97.90
7046;DHT22;3564;53.326;10.356;2022-11-20T03:37:31;5.40;97.90
7046;DHT22;3564;53.326;10.356;2022-11-20T03:39:57;5.30;97.80
7046;DHT22;3564;53.326;10.356;2022-11-20T03:42:22;5.30;97.80
7046;DHT22;3564;53.326;10.356;2022-11-20T03:45:07;5.20;97.90
7046;DHT22;3564;53.326;10.356;2022-11-20T03:47:33;5.20;98.10
7046;DHT22;3564;53.326;10.356;2022-11-20T03:49:58;5.20;98.10
7046;DHT22;3564;53.326;10.356;2022-11-20T03:52:24;5.20;98.20
7046;DHT22;3564;53.326;10.356;2022-11-20T03:54:49;5.20;98.20
7046;DHT22;3564;53.326;10.356;2022-11-20T03:57:15;5.20;98.20
7046;DHT22;3564;53.326;10.356;2022-11-20T03:59:40;5.30;98.10
7046;DHT22;3564;53.326;10.356;2022-11-20T04:02:06;5.30;98.10
7046;DHT22;3564;53.326;10.356;2022-11-20T04:04:31;5.30;98.10
7046;DHT22;3564;53.326;10.356;2022-11-20T04:06:57;5.30;98.10
7046;DHT22;3564;53.326;10.356;2022-11-20T04:09:22;5.30;98.10
7046;DHT22;3564;53.326;10.356;2022-11-20T04:11:48;5.40;98.10
7046;DHT22;3564;53.326;10.356;2022-11-20T04:14:15;5.40;98.00
7046;DHT22;3564;53.326;10.356;2022-11-20T04:16:43;5.40;98.00
7046;DHT22;3564;53.326;10.356;2022-11-20T04:19:13;5.40;98.00
7046;DHT22;3564;53.326;10.356;2022-11-20T04:21:39;5.40;97.90
7046;DHT22;3564;53.326;10.356;2022-11-20T04:24:05;5.40;97.90
7046;DHT22;3564;53.326;10.356;2022-11-20T04:26:31;5.50;98.00
7046;DHT22;3564;53.326;10.356;2022-11-20T04:28:58;5.50;98.00
7046;DHT22;3564;53.326;10.356;2022-11-20T04:31:27;5.50;97.90
7046;DHT22;3564;53.326;10.356;2022-11-20T04:33:53;5.50;97.90
7046;DHT22;3564;53.326;10.356;2022-11-20T04:36:24;5.40;97.80
7046;DHT22;3564;53.326;10.356;2022-11-20T04:38:52;5.30;97.70
7046;DHT22;3564;53.326;10.356;2022-11-20T04:41:19;5.30;97.90
7046;DHT22;3564;53.326;10.356;2022-11-20T04:43:49;5.20;98.20
7046;DHT22;3564;53.326;10.356;2022-11-20T04:46:16;5.20;98.00
7046;DHT22;3564;53.326;10.356;2022-11-20T04:48:42;5.20;98.10
7046;DHT22;3564;53.326;10.356;2022-11-20T04:51:07;5.20;98.20
7046;DHT22;3564;53.326;10.356;2022-11-20T04:53:33;5.20;98.20
7046;DHT22;3564;53.326;10.356;2022-11-20T04:56:04;5.20;98.20
7046;DHT22;3564;53.326;10.356;2022-11-20T04:58:32;5.20;98.20
7046;DHT22;3564;53.326;10.356;2022-11-20T05:01:18;5.20;98.20
7046;DHT22;3564;53.326;10.356;2022-11-20T05:03:45;5.20;98.10
7046;DHT22;3564;53.326;10.356;2022-11-20T05:06:13;5.20;98.10
7046;DHT22;3564;53.326;10.356;2022-11-20T05:08:39;5.20;98.20
7046;DHT22;3564;53.326;10.356;2022-11-20T05:11:08;5.20;98.30
7046;DHT22;3564;53.326;10.356;2022-11-20T05:13:34;5.30;98.20
7046;DHT22;3564;53.326;10.356;2022-11-20T05:16:04;5.30;98.10
7046;DHT22;3564;53.326;10.356;2022-11-20T05:18:30;5.30;98.10
7046;DHT22;3564;53.326;10.356;2022-11-20T05:20:58;5.30;98.10
7046;DHT22;3564;53.326;10.356;2022-11-20T05:23:25;5.30;98.00
7046;DHT22;3564;53.326;10.356;2022-11-20T05:25:55;5.30;98.10
7046;DHT22;3564;53.326;10.356;2022-11-20T05:28:20;5.20;98.10
7046;DHT22;3564;53.326;10.356;2022-11-20T05:30:46;5.30;98.30
7046;DHT22;3564;53.326;10.356;2022-11-20T05:33:12;5.30;98.20
7046;DHT22;3564;53.326;10.356;2022-11-20T05:35:37;5.30;98.20
7046;DHT22;3564;53.326;10.356;2022-11-20T05:38:03;5.30;98.20
7046;DHT22;3564;53.326;10.356;2022-11-20T05:40:28;5.20;98.10
7046;DHT22;3564;53.326;10.356;2022-11-20T05:42:54;5.20;98.30
7046;DHT22;3564;53.326;10.356;2022-11-20T05:45:19;5.20;98.30
7046;DHT22;3564;53.326;10.356;2022-11-20T05:47:45;5.20;98.40
7046;DHT22;3564;53.326;10.356;2022-11-20T05:50:10;5.20;98.30
7046;DHT22;3564;53.326;10.356;2022-11-20T05:52:36;5.20;98.40
7046;DHT22;3564;53.326;10.356;2022-11-20T05:55:01;5.20;98.40
7046;DHT22;3564;53.326;10.356;2022-11-20T05:57:27;5.20;98.40
7046;DHT22;3564;53.326;10.356;2022-11-20T05:59:52;5.20;98.40
7046;DHT22;3564;53.326;10.356;2022-11-20T06:02:18;5.20;98.30
7046;DHT22;3564;53.326;10.356;2022-11-20T06:04:43;5.20;98.20
7046;DHT22;3564;53.326;10.356;2022-11-20T06:07:09;5.20;98.30
7046;DHT22;3564;53.326;10.356;2022-11-20T06:09:35;5.20;98.40
7046;DHT22;3564;53.326;10.356;2022-11-20T06:12:01;5.20;98.40
7046;DHT22;3564;53.326;10.356;2022-11-20T06:14:26;5.20;98.40
7046;DHT22;3564;53.326;10.356;2022-11-20T06:16:52;5.30;98.30
7046;DHT22;3564;53.326;10.356;2022-11-20T06:19:17;5.20;98.30
7046;DHT22;3564;53.326;10.356;2022-11-20T06:21:43;5.20;98.30
7046;DHT22;3564;53.326;10.356;2022-11-20T06:24:11;5.20;98.30
7046;DHT22;3564;53.326;10.356;2022-11-20T06:26:37;5.10;98.30
7046;DHT22;3564;53.326;10.356;2022-11-20T06:29:03;5.10;98.50
7046;DHT22;3564;53.326;10.356;2022-11-20T06:31:28;5.00;98.40
7046;DHT22;3564;53.326;10.356;2022-11-20T06:33:54;5.00;98.60
7046;DHT22;3564;53.326;10.356;2022-11-20T06:36:22;5.00;98.60
7046;DHT22;3564;53.326;10.356;2022-11-20T06:38:48;5.00;98.70
7046;DHT22;3564;53.326;10.356;2022-11-20T06:41:16;4.90;98.70
7046;DHT22;3564;53.326;10.356;2022-11-20T06:43:42;4.90;98.70
7046;DHT22;3564;53.326;10.356;2022-11-20T06:46:09;4.90;98.70
7046;DHT22;3564;53.326;10.356;2022-11-20T06:48:35;4.90;98.90
7046;DHT22;3564;53.326;10.356;2022-11-20T06:51:03;4.90;98.80
7046;DHT22;3564;53.326;10.356;2022-11-20T06:53:29;5.00;98.90
7046;DHT22;3564;53.326;10.356;2022-11-20T06:55:56;5.00;98.90
7046;DHT22;3564;53.326;10.356;2022-11-20T06:58:26;5.00;98.80
7046;DHT22;3564;53.326;10.356;2022-11-20T07:00:52;5.00;98.80
7046;DHT22;3564;53.326;10.356;2022-11-20T07:03:18;5.00;98.70
7046;DHT22;3564;53.326;10.356;2022-11-20T07:05:43;5.00;98.70
7046;DHT22;3564;53.326;10.356;2022-11-20T07:08:12;5.00;98.70
7046;DHT22;3564;53.326;10.356;2022-11-20T07:10:37;4.90;98.70
7046;DHT22;3564;53.326;10.356;2022-11-20T07:13:03;4.90;98.80
7046;DHT22;3564;53.326;10.356;2022-11-20T07:15:29;4.90;98.90
7046;DHT22;3564;53.326;10.356;2022-11-20T07:17:55;5.00;98.90
7046;DHT22;3564;53.326;10.356;2022-11-20T07:20:23;5.00;98.90
7046;DHT22;3564;53.326;10.356;2022-11-20T07:22:56;5.00;98.90
7046;DHT22;3564;53.326;10.356;2022-11-20T07:25:39;5.00;98.70
7046;DHT22;3564;53.326;10.356;2022-11-20T07:28:04;5.00;98.80
7046;DHT22;3564;53.326;10.356;2022-11-20T07:30:30;5.00;98.90
7046;DHT22;3564;53.326;10.356;2022-11-20T07:32:56;5.00;98.90
7046;DHT22;3564;53.326;10.356;2022-11-20T07:35:23;5.00;99.10
7046;DHT22;3564;53.326;10.356;2022-11-20T07:37:49;5.00;99.10
7046;DHT22;3564;53.326;10.356;2022-11-20T07:40:15;5.00;99.00
7046;DHT22;3564;53.326;10.356;2022-11-20T07:42:53;5.10;99.00
7046;DHT22;3564;53.326;10.356;2022-11-20T07:45:20;5.10;99.10
7046;DHT22;3564;53.326;10.356;2022-11-20T07:47:45;5.10;99.00
7046;DHT22;3564;53.326;10.356;2022-11-20T07:50:12;5.10;99.00
7046;DHT22;3564;53.326;10.356;2022-11-20T07:52:38;5.20;98.90
7046;DHT22;3564;53.326;10.356;2022-11-20T07:55:05;5.20;98.90
7046;DHT22;3564;53.326;10.356;2022-11-20T07:57:30;5.20;99.00
7046;DHT22;3564;53.326;10.356;2022-11-20T07:59:56;5.20;99.00
7046;DHT22;3564;53.326;10.356;2022-11-20T08:02:22;5.20;98.90
7046;DHT22;3564;53.326;10.356;2022-11-20T08:04:48;5.30;99.00
7046;DHT22;3564;53.326;10.356;2022-11-20T08:07:14;5.30;98.90
7046;DHT22;3564;53.326;10.356;2022-11-20T08:09:40;5.30;98.90
7046;DHT22;3564;53.326;10.356;2022-11-20T08:12:05;5.40;98.90
7046;DHT22;3564;53.326;10.356;2022-11-20T08:14:50;5.40;98.80
7046;DHT22;3564;53.326;10.356;2022-11-20T08:17:15;5.40;98.80
7046;DHT22;3564;53.326;10.356;2022-11-20T08:19:41;5.40;98.80
7046;DHT22;3564;53.326;10.356;2022-11-20T08:22:06;5.40;98.80
7046;DHT22;3564;53.326;10.356;2022-11-20T08:24:35;5.40;99.00
7046;DHT22;3564;53.326;10.356;2022-11-20T08:27:00;5.40;99.00
7046;DHT22;3564;53.326;10.356;2022-11-20T08:29:26;5.50;99.10
7046;DHT22;3564;53.326;10.356;2022-11-20T08:31:52;5.50;99.10
7046;DHT22;3564;53.326;10.356;2022-11-20T08:34:18;5.50;99.00
7046;DHT22;3564;53.326;10.356;2022-11-20T08:36:44;5.50;99.10
7046;DHT22;3564;53.326;10.356;2022-11-20T08:39:12;5.60;99.30
7046;DHT22;3564;53.326;10.356;2022-11-20T08:41:37;5.60;99.00
7046;DHT22;3564;53.326;10.356;2022-11-20T08:44:05;5.60;99.00
7046;DHT22;3564;53.326;10.356;2022-11-20T08:46:41;5.60;99.00
7046;DHT22;3564;53.326;10.356;2022-11-20T08:49:11;5.70;99.10
7046;DHT22;3564;53.326;10.356;2022-11-20T08:51:37;5.70;99.10
7046;DHT22;3564;53.326;10.356;2022-11-20T08:54:03;5.70;99.10
7046;DHT22;3564;53.326;10.356;2022-11-20T08:56:30;5.70;99.00
7046;DHT22;3564;53.326;10.356;2022-11-20T08:58:55;5.80;99.00
7046;DHT22;3564;53.326;10.356;2022-11-20T09:01:22;5.80;99.00
7046;DHT22;3564;53.326;10.356;2022-11-20T09:03:48;5.80;98.90
7046;DHT22;3564;53.326;10.356;2022-11-20T09:06:14;5.80;98.70
7046;DHT22;3564;53.326;10.356;2022-11-20T09:08:40;5.80;98.70
7046;DHT22;3564;53.326;10.356;2022-11-20T09:11:06;5.70;98.80
7046;DHT22;3564;53.326;10.356;2022-11-20T09:13:33;5.70;98.70
7046;DHT22;3564;53.326;10.356;2022-11-20T09:16:07;5.70;98.90
7046;DHT22;3564;53.326;10.356;2022-11-20T09:18:34;5.80;98.90
7046;DHT22;3564;53.326;10.356;2022-11-20T09:21:10;5.70;98.90
7046;DHT22;3564;53.326;10.356;2022-11-20T09:23:37;5.80;99.00
7046;DHT22;3564;53.326;10.356;2022-11-20T09:26:05;5.80;98.90
7046;DHT22;3564;53.326;10.356;2022-11-20T09:28:30;5.80;99.00
7046;DHT22;3564;53.326;10.356;2022-11-20T09:30:56;5.90;99.00
7046;DHT22;3564;53.326;10.356;2022-11-20T09:33:22;5.90;98.70
7046;DHT22;3564;53.326;10.356;2022-11-20T09:35:47;5.90;98.80
7046;DHT22;3564;53.326;10.356;2022-11-20T09:38:13;5.90;98.80
7046;DHT22;3564;53.326;10.356;2022-11-20T09:41:03;5.90;98.70
7046;DHT22;3564;53.326;10.356;2022-11-20T09:43:58;5.90;98.60
7046;DHT22;3564;53.326;10.356;2022-11-20T09:46:40;5.90;98.60
7046;DHT22;3564;53.326;10.356;2022-11-20T09:49:33;5.90;98.60
7046;DHT22;3564;53.326;10.356;2022-11-20T09:52:26;5.90;98.60
7046;DHT22;3564;53.326;10.356;2022-11-20T09:54:56;5.90;98.80
7046;DHT22;3564;53.326;10.356;2022-11-20T09:57:26;5.90;98.90
7046;DHT22;3564;53.326;10.356;2022-11-20T09:59:57;5.90;98.80
7046;DHT22;3564;53.326;10.356;2022-11-20T10:05:22;6.00;98.80
7046;DHT22;3564;53.326;10.356;2022-11-20T10:10:47;6.10;98.70
7046;DHT22;3564;53.326;10.356;2022-11-20T10:13:40;6.10;98.80
7046;DHT22;3564;53.326;10.356;2022-11-20T10:16:38;6.10;98.60
7046;DHT22;3564;53.326;10.356;2022-11-20T10:19:36;6.10;98.40
7046;DHT22;3564;53.326;10.356;2022-11-20T10:25:00;6.10;98.40
7046;DHT22;3564;53.326;10.356;2022-11-20T10:32:37;6.10;98.40
7046;DHT22;3564;53.326;10.356;2022-11-20T10:35:32;6.10;98.50
7046;DHT22;3564;53.326;10.356;2022-11-20T10:38:20;6.00;98.50
7046;DHT22;3564;53.326;10.356;2022-11-20T10:40:56;6.10;98.70
7046;DHT22;3564;53.326;10.356;2022-11-20T10:43:43;6.10;98.70
7046;DHT22;3564;53.326;10.356;2022-11-20T10:46:22;6.10;98.80
7046;DHT22;3564;53.326;10.356;2022-11-20T10:48:49;6.10;98.40
7046;DHT22;3564;53.326;10.356;2022-11-20T10:56:35;6.30;98.60
7046;DHT22;3564;53.326;10.356;2022-11-20T10:59:17;6.30;98.40
7046;DHT22;3564;53.326;10.356;2022-11-20T11:01:45;6.30;98.20
7046;DHT22;3564;53.326;10.356;2022-11-20T11:04:34;6.40;98.30
7046;DHT22;3564;53.326;10.356;2022-11-20T11:07:18;6.40;98.30
7046;DHT22;3564;53.326;10.356;2022-11-20T11:09:49;6.50;98.40
7046;DHT22;3564;53.326;10.356;2022-11-20T11:12:15;6.50;98.40
7046;DHT22;3564;53.326;10.356;2022-11-20T11:14:52;6.60;98.30
7046;DHT22;3564;53.326;10.356;2022-11-20T11:17:29;6.70;98.10
7046;DHT22;3564;53.326;10.356;2022-11-20T11:22:32;6.70;97.30
7046;DHT22;3564;53.326;10.356;2022-11-20T11:24:59;6.70;97.10
7046;DHT22;3564;53.326;10.356;2022-11-20T11:27:25;6.70;97.20
7046;DHT22;3564;53.326;10.356;2022-11-20T11:30:11;6.60;96.80
7046;DHT22;3564;53.326;10.356;2022-11-20T11:32:38;6.60;96.80
7046;DHT22;3564;53.326;10.356;2022-11-20T11:35:22;6.60;96.70
7046;DHT22;3564;53.326;10.356;2022-11-20T11:37:49;6.60;97.10
7046;DHT22;3564;53.326;10.356;2022-11-20T11:40:17;6.70;97.00
7046;DHT22;3564;53.326;10.356;2022-11-20T11:42:49;6.70;97.10
7046;DHT22;3564;53.326;10.356;2022-11-20T11:45:16;6.80;97.30
7046;DHT22;3564;53.326;10.356;2022-11-20T11:53:09;7.00;96.90
7046;DHT22;3564;53.326;10.356;2022-11-20T11:56:00;7.00;96.80
7046;DHT22;3564;53.326;10.356;2022-11-20T12:01:24;7.10;96.80
7046;DHT22;3564;53.326;10.356;2022-11-20T12:04:10;7.10;96.80
7046;DHT22;3564;53.326;10.356;2022-11-20T12:06:44;7.10;96.80
7046;DHT22;3564;53.326;10.356;2022-11-20T12:09:11;7.10;96.90
7046;DHT22;3564;53.326;10.356;2022-11-20T12:11:50;7.10;96.90
7046;DHT22;3564;53.326;10.356;2022-11-20T12:16:56;7.10;97.10
7046;DHT22;3564;53.326;10.356;2022-11-20T12:19:23;7.10;97.10
7046;DHT22;3564;53.326;10.356;2022-11-20T12:24:42;7.10;97.00
7046;DHT22;3564;53.326;10.356;2022-11-20T12:35:47;7.10;97.00
7046;DHT22;3564;53.326;10.356;2022-11-20T12:58:19;7.20;96.80
7046;DHT22;3564;53.326;10.356;2022-11-20T13:01:05;7.20;96.60
7046;DHT22;3564;53.326;10.356;2022-11-20T13:03:38;7.20;96.30
7046;DHT22;3564;53.326;10.356;2022-11-20T13:06:15;7.30;96.00
7046;DHT22;3564;53.326;10.356;2022-11-20T13:09:04;7.20;95.70
7046;DHT22;3564;53.326;10.356;2022-11-20T13:14:42;7.30;95.70
7046;DHT22;3564;53.326;10.356;2022-11-20T13:17:14;7.30;95.20
7046;DHT22;3564;53.326;10.356;2022-11-20T13:19:41;7.20;95.10
7046;DHT22;3564;53.326;10.356;2022-11-20T13:22:10;7.20;95.20
7046;DHT22;3564;53.326;10.356;2022-11-20T13:24:36;7.20;95.30
7046;DHT22;3564;53.326;10.356;2022-11-20T13:29:35;7.20;95.40
7046;DHT22;3564;53.326;10.356;2022-11-20T13:32:15;7.20;95.60
7046;DHT22;3564;53.326;10.356;2022-11-20T13:34:53;7.20;95.60
7046;DHT22;3564;53.326;10.356;2022-11-20T13:37:34;7.20;95.70
7046;DHT22;3564;53.326;10.356;2022-11-20T13:45:21;7.10;95.60
7046;DHT22;3564;53.326;10.356;2022-11-20T13:47:53;7.20;95.70
7046;DHT22;3564;53.326;10.356;2022-11-20T13:50:21;7.20;95.80
7046;DHT22;3564;53.326;10.356;2022-11-20T13:58:55;7.20;95.80
7046;DHT22;3564;53.326;10.356;2022-11-20T14:01:26;7.10;95.60
7046;DHT22;3564;53.326;10.356;2022-11-20T14:03:53;7.10;95.60
7046;DHT22;3564;53.326;10.356;2022-11-20T14:06:32;7.10;95.70
7046;DHT22;3564;53.326;10.356;2022-11-20T14:08:59;7.10;95.60
7046;DHT22;3564;53.326;10.356;2022-11-20T14:11:29;7.10;95.60
7046;DHT22;3564;53.326;10.356;2022-11-20T14:14:04;7.10;95.70
7046;DHT22;3564;53.326;10.356;2022-11-20T14:16:33;7.10;95.70
7046;DHT22;3564;53.326;10.356;2022-11-20T14:21:54;7.10;95.50
7046;DHT22;3564;53.326;10.356;2022-11-20T14:24:23;7.00;95.30
7046;DHT22;3564;53.326;10.356;2022-11-20T14:26:50;7.00;95.10
7046;DHT22;3564;53.326;10.356;2022-11-20T14:29:22;7.00;95.00
7046;DHT22;3564;53.326;10.356;2022-11-20T14:31:52;7.00;95.00
7046;DHT22;3564;53.326;10.356;2022-11-20T14:34:21;7.00;95.00
7046;DHT22;3564;53.326;10.356;2022-11-20T14:36:47;7.00;95.00
7046;DHT22;3564;53.326;10.356;2022-11-20T14:39:32;7.00;95.00
7046;DHT22;3564;53.326;10.356;2022-11-20T14:41:58;6.90;95.10
7046;DHT22;3564;53.326;10.356;2022-11-20T14:44:31;6.90;95.00
7046;DHT22;3564;53.326;10.356;2022-11-20T14:46:59;6.90;94.90
7046;DHT22;3564;53.326;10.356;2022-11-20T14:49:28;6.90;95.10
7046;DHT22;3564;53.326;10.356;2022-11-20T14:52:02;6.90;95.10
7046;DHT22;3564;53.326;10.356;2022-11-20T14:54:28;6.80;95.10
7046;DHT22;3564;53.326;10.356;2022-11-20T14:57:00;6.80;95.00
7046;DHT22;3564;53.326;10.356;2022-11-20T14:59:32;6.80;95.00
7046;DHT22;3564;53.326;10.356;2022-11-20T15:02:04;6.70;95.10
7046;DHT22;3564;53.326;10.356;2022-11-20T15:04:30;6.70;95.20
7046;DHT22;3564;53.326;10.356;2022-11-20T15:07:01;6.70;95.30
7046;DHT22;3564;53.326;10.356;2022-11-20T15:09:27;6.70;95.40
7046;DHT22;3564;53.326;10.356;2022-11-20T15:11:58;6.60;95.40
7046;DHT22;3564;53.326;10.356;2022-11-20T15:14:27;6.70;95.50
7046;DHT22;3564;53.326;10.356;2022-11-20T15:16:53;6.60;95.60
7046;DHT22;3564;53.326;10.356;2022-11-20T15:19:22;6.60;95.60
7046;DHT22;3564;53.326;10.356;2022-11-20T15:21:49;6.60;95.70
7046;DHT22;3564;53.326;10.356;2022-11-20T15:24:17;6.60;95.80
7046;DHT22;3564;53.326;10.356;2022-11-20T15:26:45;6.70;95.90
7046;DHT22;3564;53.326;10.356;2022-11-20T15:29:12;6.70;95.90
7046;DHT22;3564;53.326;10.356;2022-11-20T15:31:39;6.60;95.90
7046;DHT22;3564;53.326;10.356;2022-11-20T15:34:11;6.70;96.00
7046;DHT22;3564;53.326;10.356;2022-11-20T15:36:38;6.70;96.00
7046;DHT22;3564;53.326;10.356;2022-11-20T15:39:04;6.70;96.00
7046;DHT22;3564;53.326;10.356;2022-11-20T15:41:32;6.70;95.90
7046;DHT22;3564;53.326;10.356;2022-11-20T15:43:58;6.70;95.90
7046;DHT22;3564;53.326;10.356;2022-11-20T15:46:27;6.70;96.00
7046;DHT22;3564;53.326;10.356;2022-11-20T15:48:56;6.70;96.00
7046;DHT22;3564;53.326;10.356;2022-11-20T15:51:35;6.70;95.90
7046;DHT22;3564;53.326;10.356;2022-11-20T15:54:05;6.70;95.70
7046;DHT22;3564;53.326;10.356;2022-11-20T15:56:34;6.70;95.60
7046;DHT22;3564;53.326;10.356;2022-11-20T15:59:00;6.70;95.70
7046;DHT22;3564;53.326;10.356;2022-11-20T16:01:25;6.70;95.50
7046;DHT22;3564;53.326;10.356;2022-11-20T16:03:51;6.70;95.30
7046;DHT22;3564;53.326;10.356;2022-11-20T16:06:17;6.60;95.20
7046;DHT22;3564;53.326;10.356;2022-11-20T16:08:43;6.60;95.20
7046;DHT22;3564;53.326;10.356;2022-11-20T16:11:12;6.60;95.20
7046;DHT22;3564;53.326;10.356;2022-11-20T16:13:38;6.50;95.20
7046;DHT22;3564;53.326;10.356;2022-11-20T16:16:25;6.50;95.40
7046;DHT22;3564;53.326;10.356;2022-11-20T16:18:54;6.50;95.60
7046;DHT22;3564;53.326;10.356;2022-11-20T16:21:20;6.50;95.80
7046;DHT22;3564;53.326;10.356;2022-11-20T16:23:46;6.40;95.90
7046;DHT22;3564;53.326;10.356;2022-11-20T16:26:16;6.40;96.00
7046;DHT22;3564;53.326;10.356;2022-11-20T16:28:46;6.50;96.20
7046;DHT22;3564;53.326;10.356;2022-11-20T16:31:16;6.50;96.20
7046;DHT22;3564;53.326;10.356;2022-11-20T16:34:03;6.50;96.30
7046;DHT22;3564;53.326;10.356;2022-11-20T16:36:29;6.50;96.30
7046;DHT22;3564;53.326;10.356;2022-11-20T16:39:00;6.50;96.20
7046;DHT22;3564;53.326;10.356;2022-11-20T16:41:27;6.50;96.20
7046;DHT22;3564;53.326;10.356;2022-11-20T16:43:58;6.50;96.20
7046;DHT22;3564;53.326;10.356;2022-11-20T16:46:26;6.50;96.10
7046;DHT22;3564;53.326;10.356;2022-11-20T16:48:54;6.50;96.10
7046;DHT22;3564;53.326;10.356;2022-11-20T16:51:20;6.40;96.00
7046;DHT22;3564;53.326;10.356;2022-11-20T16:53:46;6.40;96.00
7046;DHT22;3564;53.326;10.356;2022-11-20T16:56:17;6.40;96.10
7046;DHT22;3564;53.326;10.356;2022-11-20T16:58:44;6.40;96.10
7046;DHT22;3564;53.326;10.356;2022-11-20T17:01:13;6.40;96.20
7046;DHT22;3564;53.326;10.356;2022-11-20T17:03:40;6.30;96.20
7046;DHT22;3564;53.326;10.356;2022-11-20T17:06:17;6.30;96.20
7046;DHT22;3564;53.326;10.356;2022-11-20T17:08:44;6.30;96.20
7046;DHT22;3564;53.326;10.356;2022-11-20T17:11:13;6.30;96.20
7046;DHT22;3564;53.326;10.356;2022-11-20T17:13:39;6.30;96.10
7046;DHT22;3564;53.326;10.356;2022-11-20T17:16:11;6.20;96.10
7046;DHT22;3564;53.326;10.356;2022-11-20T17:18:38;6.20;96.20
7046;DHT22;3564;53.326;10.356;2022-11-20T17:21:05;6.10;96.20
7046;DHT22;3564;53.326;10.356;2022-11-20T17:23:33;6.10;96.30
7046;DHT22;3564;53.326;10.356;2022-11-20T17:26:10;6.20;96.50
7046;DHT22;3564;53.326;10.356;2022-11-20T17:28:36;6.10;96.40
7046;DHT22;3564;53.326;10.356;2022-11-20T17:31:07;6.10;96.30
7046;DHT22;3564;53.326;10.356;2022-11-20T17:33:52;6.10;96.30
7046;DHT22;3564;53.326;10.356;2022-11-20T17:36:18;6.10;96.30
7046;DHT22;3564;53.326;10.356;2022-11-20T17:38:45;6.00;96.40
7046;DHT22;3564;53.326;10.356;2022-11-20T17:41:13;6.10;96.40
7046;DHT22;3564;53.326;10.356;2022-11-20T17:43:39;6.00;96.40
7046;DHT22;3564;53.326;10.356;2022-11-20T17:46:13;6.00;96.40
7046;DHT22;3564;53.326;10.356;2022-11-20T17:48:40;5.90;96.50